createdAt,value
2022-12-18T00:00:23.804Z,68.40
2022-12-18T00:01:23.909Z,66.50
2022-12-18T00:02:23.845Z,67.20
2022-12-18T00:03:23.916Z,61.30
2022-12-18T00:04:23.912Z,63.20
2022-12-18T00:05:23.766Z,68.70
2022-12-18T00:06:23.989Z,66.70
2022-12-18T00:07:24.085Z,64.60
2022-12-18T00:08:24.213Z,66.50
2022-12-18T00:09:24.232Z,62.30
2022-12-18T00:10:24.223Z,67.00
2022-12-18T00:11:23.712Z,66.80
2022-12-18T00:12:24.324Z,61.00
2022-12-18T00:13:23.699Z,60.60
2022-12-18T00:14:23.720Z,64.70
2022-12-18T00:15:23.717Z,63.60
2022-12-18T00:16:23.809Z,62.60
2022-12-18T00:17:23.855Z,71.30
2022-12-18T00:18:23.857Z,59.30
2022-12-18T00:19:23.866Z,63.40
2022-12-18T00:20:23.676Z,64.10
2022-12-18T00:21:23.998Z,64.60
2022-12-18T00:22:23.886Z,65.40
2022-12-18T00:23:24.096Z,65.00
2022-12-18T00:24:24.107Z,61.60
2022-12-18T00:25:24.194Z,59.00
2022-12-18T00:26:24.124Z,58.80
2022-12-18T00:27:24.333Z,61.20
2022-12-18T00:28:23.723Z,53.70
2022-12-18T00:29:24.244Z,60.10
2022-12-18T00:30:23.941Z,47.80
2022-12-18T00:31:24.395Z,56.20
2022-12-18T00:32:23.820Z,59.10
2022-12-18T00:33:23.669Z,47.40
2022-12-18T00:34:23.797Z,56.60
2022-12-18T00:35:24.067Z,47.90
2022-12-18T00:36:24.403Z,56.60
2022-12-18T00:37:23.579Z,51.30
2022-12-18T00:38:24.199Z,48.70
2022-12-18T00:39:23.598Z,51.80
2022-12-18T00:40:24.417Z,48.90
2022-12-18T00:41:23.807Z,59.30
2022-12-18T00:42:23.727Z,52.40
2022-12-18T00:43:24.029Z,52.20
2022-12-18T00:44:23.486Z,59.10
2022-12-18T00:45:23.888Z,54.70
2022-12-18T00:46:23.635Z,61.20
2022-12-18T00:47:24.355Z,53.10
2022-12-18T00:48:24.335Z,60.10
2022-12-18T00:49:23.654Z,60.60
2022-12-18T00:50:23.533Z,52.50
2022-12-18T00:51:23.515Z,61.80
2022-12-18T00:52:23.492Z,58.60
2022-12-18T00:53:23.560Z,63.10
2022-12-18T00:54:23.571Z,55.40
2022-12-18T00:55:23.611Z,55.80
2022-12-18T00:56:23.711Z,60.80
2022-12-18T00:57:23.462Z,51.50
2022-12-18T00:58:23.419Z,57.30
2022-12-18T00:59:23.438Z,45.80
2022-12-18T01:00:23.543Z,50.00
2022-12-18T01:01:23.664Z,53.50
2022-12-18T01:02:23.543Z,44.60
2022-12-18T01:03:23.559Z,47.70
2022-12-18T01:04:23.430Z,41.40
2022-12-18T01:05:23.657Z,46.60
2022-12-18T01:06:23.656Z,42.00
2022-12-18T01:07:23.377Z,42.20
2022-12-18T01:08:23.449Z,42.10
2022-12-18T01:09:23.396Z,43.00
2022-12-18T01:10:23.676Z,48.50
2022-12-18T01:11:23.664Z,45.20
2022-12-18T01:12:23.882Z,46.50
2022-12-18T01:13:23.416Z,39.60
2022-12-18T01:14:24.353Z,47.90
2022-12-18T01:15:23.493Z,42.60
2022-12-18T01:16:23.707Z,44.20
2022-12-18T01:17:23.643Z,48.50
2022-12-18T01:18:23.862Z,41.00
2022-12-18T01:19:23.452Z,43.50
2022-12-18T01:20:23.721Z,41.80
2022-12-18T01:21:23.879Z,44.90
2022-12-18T01:22:23.480Z,40.00
2022-12-18T01:23:24.100Z,38.20
2022-12-18T01:24:23.371Z,41.90
2022-12-18T01:25:23.910Z,34.00
2022-12-18T01:26:23.360Z,40.70
2022-12-18T01:27:23.327Z,34.80
2022-12-18T01:28:23.316Z,39.20
2022-12-18T01:29:23.328Z,38.80
2022-12-18T01:30:23.335Z,34.10
2022-12-18T01:31:23.424Z,38.30
2022-12-18T01:32:23.396Z,33.60
2022-12-18T01:33:23.560Z,36.20
2022-12-18T01:34:23.233Z,36.30
2022-12-18T01:35:23.203Z,37.70
2022-12-18T01:36:23.572Z,38.40
2022-12-18T01:37:23.221Z,34.60
2022-12-18T01:38:23.583Z,32.60
2022-12-18T01:39:23.802Z,34.60
2022-12-18T01:40:23.812Z,36.60
2022-12-18T01:41:23.203Z,36.20
2022-12-18T01:42:23.872Z,31.10
2022-12-18T01:43:23.621Z,40.40
2022-12-18T01:44:23.633Z,34.80
2022-12-18T01:45:23.849Z,32.30
2022-12-18T01:46:23.640Z,31.80
2022-12-18T01:47:23.979Z,33.50
2022-12-18T01:48:24.068Z,37.00
2022-12-18T01:49:23.917Z,34.90
2022-12-18T01:50:23.257Z,32.90
2022-12-18T01:51:24.105Z,31.80
2022-12-18T01:52:24.007Z,32.80
2022-12-18T01:53:23.127Z,28.80
2022-12-18T01:54:23.107Z,36.10
2022-12-18T01:55:23.103Z,31.10
2022-12-18T01:56:23.084Z,30.30
2022-12-18T01:57:23.106Z,30.20
2022-12-18T01:58:23.095Z,28.50
2022-12-18T01:59:23.115Z,31.20
2022-12-18T02:00:23.124Z,28.60
2022-12-18T02:01:23.280Z,30.70
2022-12-18T02:02:23.242Z,31.10
2022-12-18T02:03:23.215Z,28.00
2022-12-18T02:04:23.184Z,31.60
2022-12-18T02:05:23.211Z,27.90
2022-12-18T02:06:23.023Z,29.80
2022-12-18T02:07:23.038Z,29.00
2022-12-18T02:08:23.042Z,27.40
2022-12-18T02:09:23.041Z,27.70
2022-12-18T02:10:23.009Z,25.50
2022-12-18T02:11:23.028Z,33.10
2022-12-18T02:12:23.065Z,30.30
2022-12-18T02:13:23.012Z,32.50
2022-12-18T02:14:23.058Z,28.50
2022-12-18T02:15:23.066Z,27.70
2022-12-18T02:16:23.205Z,32.20
2022-12-18T02:17:22.978Z,32.30
2022-12-18T02:18:23.045Z,31.00
2022-12-18T02:19:23.085Z,30.10
2022-12-18T02:20:22.946Z,37.90
2022-12-18T02:21:22.932Z,35.00
2022-12-18T02:22:23.105Z,41.10
2022-12-18T02:23:23.283Z,37.20
2022-12-18T02:24:22.942Z,37.00
2022-12-18T02:25:22.914Z,37.30
2022-12-18T02:26:22.952Z,34.90
2022-12-18T02:27:23.320Z,39.40
2022-12-18T02:28:23.322Z,29.40
2022-12-18T02:29:23.332Z,37.50
2022-12-18T02:30:23.033Z,33.70
2022-12-18T02:31:22.962Z,38.10
2022-12-18T02:32:23.356Z,39.70
2022-12-18T02:33:23.349Z,33.90
2022-12-18T02:34:22.871Z,40.30
2022-12-18T02:35:22.959Z,35.60
2022-12-18T02:36:22.969Z,38.40
2022-12-18T02:37:23.185Z,38.20
2022-12-18T02:38:23.395Z,40.40
2022-12-18T02:39:22.846Z,42.40
2022-12-18T02:40:23.407Z,37.90
2022-12-18T02:41:22.857Z,45.40
2022-12-18T02:42:23.415Z,37.00
2022-12-18T02:43:22.837Z,44.40
2022-12-18T02:44:22.834Z,46.20
2022-12-18T02:45:22.849Z,50.00
2022-12-18T02:46:23.033Z,52.90
2022-12-18T02:47:23.046Z,46.40
2022-12-18T02:48:22.804Z,51.70
2022-12-18T02:49:22.882Z,48.80
2022-12-18T02:50:22.863Z,45.00
2022-12-18T02:51:22.875Z,54.70
2022-12-18T02:52:22.887Z,53.20
2022-12-18T02:53:22.882Z,53.70
2022-12-18T02:54:22.910Z,47.10
2022-12-18T02:55:23.101Z,51.20
2022-12-18T02:56:23.113Z,47.60
2022-12-18T02:57:23.119Z,50.00
2022-12-18T02:58:22.913Z,51.50
2022-12-18T02:59:22.943Z,46.90
2022-12-18T03:00:23.139Z,46.30
2022-12-18T03:01:22.859Z,50.00
2022-12-18T03:02:23.095Z,47.80
2022-12-18T03:03:22.995Z,51.20
2022-12-18T03:04:23.378Z,46.20
2022-12-18T03:05:22.755Z,51.50
2022-12-18T03:06:23.178Z,54.80
2022-12-18T03:07:23.387Z,43.40
2022-12-18T03:08:22.986Z,46.70
2022-12-18T03:09:23.575Z,47.60
2022-12-18T03:10:23.646Z,48.40
2022-12-18T03:11:23.008Z,49.40
2022-12-18T03:12:23.012Z,44.30
2022-12-18T03:13:23.423Z,47.30
2022-12-18T03:14:23.561Z,44.70
2022-12-18T03:15:23.466Z,50.20
2022-12-18T03:16:22.688Z,44.60
2022-12-18T03:17:23.042Z,49.00
2022-12-18T03:18:23.691Z,48.20
2022-12-18T03:19:22.682Z,46.30
2022-12-18T03:20:22.708Z,48.90
2022-12-18T03:21:22.669Z,36.90
2022-12-18T03:22:22.695Z,45.40
2022-12-18T03:23:26.097Z,42.40
2022-12-18T03:24:22.909Z,46.90
2022-12-18T03:25:22.888Z,39.60
2022-12-18T03:26:22.903Z,39.50
2022-12-18T03:27:22.909Z,38.30
2022-12-18T03:28:22.915Z,34.80
2022-12-18T03:29:23.125Z,43.70
2022-12-18T03:30:23.137Z,37.10
2022-12-18T03:31:22.809Z,38.40
2022-12-18T03:32:22.951Z,36.30
2022-12-18T03:33:23.177Z,40.80
2022-12-18T03:34:23.383Z,35.90
2022-12-18T03:35:23.384Z,35.50
2022-12-18T03:36:22.561Z,39.30
2022-12-18T03:37:22.562Z,32.60
2022-12-18T03:38:22.583Z,39.90
2022-12-18T03:39:22.591Z,31.70
2022-12-18T03:40:22.600Z,38.20
2022-12-18T03:41:22.599Z,33.70
2022-12-18T03:42:22.609Z,36.40
2022-12-18T03:43:22.617Z,37.60
2022-12-18T03:44:22.619Z,34.30
2022-12-18T03:45:22.627Z,37.20
2022-12-18T03:46:22.578Z,38.70
2022-12-18T03:47:22.477Z,36.20
2022-12-18T03:48:22.497Z,37.00
2022-12-18T03:49:22.468Z,33.30
2022-12-18T03:50:22.705Z,38.70
2022-12-18T03:51:22.495Z,36.40
2022-12-18T03:52:22.474Z,39.10
2022-12-18T03:53:22.474Z,37.40
2022-12-18T03:54:22.483Z,35.50
2022-12-18T03:55:22.504Z,38.20
2022-12-18T03:56:22.502Z,31.20
2022-12-18T03:57:22.502Z,36.10
2022-12-18T03:58:22.582Z,33.10
2022-12-18T03:59:22.513Z,40.80
2022-12-18T04:00:22.542Z,35.60
2022-12-18T04:01:22.686Z,34.30
2022-12-18T04:02:22.475Z,36.90
2022-12-18T04:03:26.208Z,33.40
2022-12-18T04:04:22.371Z,36.40
2022-12-18T04:05:22.772Z,33.70
2022-12-18T04:06:22.349Z,38.00
2022-12-18T04:07:22.359Z,34.40
2022-12-18T04:08:22.781Z,40.00
2022-12-18T04:09:22.579Z,36.30
2022-12-18T04:10:22.328Z,33.70
2022-12-18T04:11:22.327Z,35.20
2022-12-18T04:12:22.806Z,34.20
2022-12-18T04:13:22.404Z,36.10
2022-12-18T04:14:22.815Z,40.50
2022-12-18T04:15:22.315Z,37.60
2022-12-18T04:16:22.416Z,34.10
2022-12-18T04:17:22.846Z,35.90
2022-12-18T04:18:22.853Z,36.40
2022-12-18T04:19:22.832Z,36.90
2022-12-18T04:20:22.272Z,37.20
2022-12-18T04:21:22.594Z,42.40
2022-12-18T04:22:22.872Z,39.60
2022-12-18T04:23:22.884Z,42.00
2022-12-18T04:24:22.471Z,43.30
2022-12-18T04:25:22.900Z,43.10
2022-12-18T04:26:22.308Z,40.90
2022-12-18T04:27:22.909Z,38.90
2022-12-18T04:28:22.909Z,41.10
2022-12-18T04:29:22.711Z,37.30
2022-12-18T04:30:22.310Z,42.30
2022-12-18T04:31:23.010Z,41.80
2022-12-18T04:32:22.348Z,40.30
2022-12-18T04:33:22.951Z,41.70
2022-12-18T04:34:22.536Z,36.50
2022-12-18T04:35:22.544Z,39.40
2022-12-18T04:36:22.756Z,39.20
2022-12-18T04:37:22.356Z,34.20
2022-12-18T04:38:22.357Z,40.50
2022-12-18T04:39:22.369Z,35.80
2022-12-18T04:40:22.385Z,39.40
2022-12-18T04:41:22.384Z,32.80
2022-12-18T04:42:22.234Z,38.60
2022-12-18T04:43:22.291Z,35.90
2022-12-18T04:44:22.605Z,35.50
2022-12-18T04:45:22.635Z,32.70
2022-12-18T04:46:22.638Z,36.10
2022-12-18T04:47:22.221Z,38.30
2022-12-18T04:48:22.631Z,36.40
2022-12-18T04:49:22.651Z,38.60
2022-12-18T04:50:22.851Z,37.20
2022-12-18T04:51:26.324Z,33.90
2022-12-18T04:52:23.570Z,40.70
2022-12-18T04:53:22.880Z,34.40
2022-12-18T04:54:22.879Z,39.20
2022-12-18T04:55:22.150Z,36.40
2022-12-18T04:56:22.196Z,37.60
2022-12-18T04:57:22.896Z,37.80
2022-12-18T04:58:22.898Z,40.40
2022-12-18T04:59:22.297Z,39.80
2022-12-18T05:00:23.127Z,39.50
2022-12-18T05:01:23.132Z,38.70
2022-12-18T05:02:22.175Z,35.10
2022-12-18T05:03:22.207Z,33.50
2022-12-18T05:04:22.152Z,41.40
2022-12-18T05:05:22.139Z,36.50
2022-12-18T05:06:22.144Z,39.40
2022-12-18T05:07:22.154Z,38.00
2022-12-18T05:08:22.223Z,36.20
2022-12-18T05:09:22.371Z,41.40
2022-12-18T05:10:22.372Z,35.70
2022-12-18T05:11:22.382Z,34.60
2022-12-18T05:12:22.031Z,41.30
2022-12-18T05:13:22.613Z,38.60
2022-12-18T05:14:22.608Z,39.40
2022-12-18T05:15:22.051Z,42.30
2022-12-18T05:16:22.074Z,37.60
2022-12-18T05:17:22.008Z,42.40
2022-12-18T05:18:22.010Z,38.80
2022-12-18T05:19:22.128Z,39.20
2022-12-18T05:20:22.237Z,31.60
2022-12-18T05:21:22.237Z,36.70
2022-12-18T05:22:22.058Z,35.90
2022-12-18T05:23:22.457Z,38.30
2022-12-18T05:24:22.356Z,37.10
2022-12-18T05:25:22.477Z,33.10
2022-12-18T05:26:22.476Z,42.10
2022-12-18T05:27:22.066Z,36.30
2022-12-18T05:28:22.274Z,36.50
2022-12-18T05:29:22.494Z,35.30
2022-12-18T05:30:22.084Z,32.20
2022-12-18T05:31:21.950Z,35.40
2022-12-18T05:32:22.095Z,38.60
2022-12-18T05:33:21.954Z,32.60
2022-12-18T05:34:22.334Z,38.10
2022-12-18T05:35:22.531Z,30.50
2022-12-18T05:36:21.924Z,33.40
2022-12-18T05:37:22.894Z,33.20
2022-12-18T05:38:22.040Z,31.50
2022-12-18T05:39:22.353Z,33.70
2022-12-18T05:40:22.766Z,28.80
2022-12-18T05:41:22.170Z,31.00
2022-12-18T05:42:22.658Z,31.70
2022-12-18T05:43:21.982Z,27.70
2022-12-18T05:44:21.968Z,32.40
2022-12-18T05:45:22.011Z,30.00
2022-12-18T05:46:22.033Z,29.80
2022-12-18T05:47:22.398Z,23.00
2022-12-18T05:48:22.608Z,26.60
2022-12-18T05:49:22.032Z,25.60
2022-12-18T05:50:22.007Z,26.10
2022-12-18T05:51:21.815Z,28.10
2022-12-18T05:52:21.835Z,23.90
2022-12-18T05:53:22.633Z,22.20
2022-12-18T05:54:21.843Z,24.60
2022-12-18T05:55:22.646Z,21.10
2022-12-18T05:56:21.853Z,26.80
2022-12-18T05:57:21.894Z,23.30
2022-12-18T05:58:21.771Z,21.60
2022-12-18T05:59:21.981Z,18.70
2022-12-18T06:00:21.784Z,18.70
2022-12-18T06:01:21.771Z,20.20
2022-12-18T06:02:21.882Z,17.90
2022-12-18T06:03:21.985Z,20.30
2022-12-18T06:04:21.931Z,19.70
2022-12-18T06:05:21.970Z,17.30
2022-12-18T06:06:21.719Z,23.10
2022-12-18T06:07:21.920Z,20.50
2022-12-18T06:08:21.729Z,18.60
2022-12-18T06:09:22.149Z,22.10
2022-12-18T06:10:21.791Z,16.80
2022-12-18T06:11:21.706Z,20.60
2022-12-18T06:12:22.379Z,19.30
2022-12-18T06:13:22.384Z,18.40
2022-12-18T06:14:22.386Z,20.60
2022-12-18T06:15:22.446Z,17.40
2022-12-18T06:16:22.478Z,20.40
2022-12-18T06:17:22.186Z,20.80
2022-12-18T06:18:22.240Z,17.00
2022-12-18T06:19:22.623Z,19.20
2022-12-18T06:20:22.593Z,17.30
2022-12-18T06:21:22.012Z,18.70
2022-12-18T06:22:22.073Z,16.10
2022-12-18T06:23:21.632Z,19.50
2022-12-18T06:24:21.671Z,18.00
2022-12-18T06:25:21.618Z,17.40
2022-12-18T06:26:27.617Z,20.00
2022-12-18T06:27:21.850Z,18.60
2022-12-18T06:28:21.701Z,17.70
2022-12-18T06:29:21.860Z,17.60
2022-12-18T06:30:22.140Z,17.30
2022-12-18T06:31:22.587Z,17.90
2022-12-18T06:32:21.617Z,16.40
2022-12-18T06:33:21.631Z,19.90
2022-12-18T06:34:21.558Z,16.50
2022-12-18T06:35:21.898Z,20.70
2022-12-18T06:36:21.596Z,15.80
2022-12-18T06:37:21.556Z,16.10
2022-12-18T06:38:21.565Z,19.10
2022-12-18T06:39:21.586Z,15.00
2022-12-18T06:40:21.545Z,17.10
2022-12-18T06:41:21.545Z,15.20
2022-12-18T06:42:21.550Z,17.00
2022-12-18T06:43:21.563Z,18.90
2022-12-18T06:44:21.544Z,15.70
2022-12-18T06:45:21.553Z,17.10
2022-12-18T06:46:21.598Z,16.10
2022-12-18T06:47:21.572Z,16.30
2022-12-18T06:48:21.471Z,16.10
2022-12-18T06:49:23.393Z,14.40
2022-12-18T06:50:21.590Z,18.60
2022-12-18T06:51:21.595Z,17.00
2022-12-18T06:52:21.451Z,17.30
2022-12-18T06:53:21.460Z,17.90
2022-12-18T06:54:21.610Z,14.90
2022-12-18T06:55:21.744Z,18.30
2022-12-18T06:56:21.430Z,21.00
2022-12-18T06:57:21.427Z,20.90
2022-12-18T06:58:21.447Z,20.70
2022-12-18T06:59:21.447Z,19.90
2022-12-18T07:00:21.456Z,20.30
2022-12-18T07:01:21.695Z,22.10
2022-12-18T07:02:21.624Z,26.30
2022-12-18T07:03:21.687Z,20.90
2022-12-18T07:04:21.685Z,21.10
2022-12-18T07:05:21.695Z,24.60
2022-12-18T07:06:21.765Z,23.10
2022-12-18T07:07:21.373Z,24.30
2022-12-18T07:08:21.412Z,26.50
2022-12-18T07:09:21.936Z,27.80
2022-12-18T07:10:21.404Z,24.00
2022-12-18T07:11:21.356Z,25.70
2022-12-18T07:12:21.342Z,28.40
2022-12-18T07:13:21.543Z,26.00
2022-12-18T07:14:21.540Z,28.30
2022-12-18T07:15:21.348Z,25.60
2022-12-18T07:16:25.164Z,27.20
2022-12-18T07:17:21.373Z,22.50
2022-12-18T07:18:21.361Z,26.20
2022-12-18T07:19:21.779Z,25.70
2022-12-18T07:20:21.370Z,27.30
2022-12-18T07:21:21.383Z,24.80
2022-12-18T07:22:21.676Z,19.50
2022-12-18T07:23:22.018Z,25.00
2022-12-18T07:24:22.019Z,24.90
2022-12-18T07:25:22.099Z,23.80
2022-12-18T07:26:21.632Z,23.50
2022-12-18T07:27:22.115Z,20.10
2022-12-18T07:28:22.115Z,25.50
2022-12-18T07:29:21.292Z,20.50
2022-12-18T07:30:21.514Z,24.90
2022-12-18T07:31:22.096Z,20.10
2022-12-18T07:32:22.144Z,22.10
2022-12-18T07:33:22.154Z,24.10
2022-12-18T07:34:21.474Z,21.20
2022-12-18T07:35:24.928Z,22.60
2022-12-18T07:36:21.552Z,17.30
2022-12-18T07:37:22.122Z,18.40
2022-12-18T07:38:21.681Z,18.40
2022-12-18T07:39:21.291Z,20.80
2022-12-18T07:40:21.201Z,18.90
2022-12-18T07:41:22.002Z,17.60
2022-12-18T07:42:21.332Z,19.10
2022-12-18T07:43:21.212Z,17.40
2022-12-18T07:44:21.939Z,17.70
2022-12-18T07:45:21.624Z,19.00
2022-12-18T07:46:21.217Z,21.00
2022-12-18T07:47:21.167Z,17.40
2022-12-18T07:48:21.888Z,19.50
2022-12-18T07:49:21.241Z,15.20
2022-12-18T07:50:21.245Z,19.40
2022-12-18T07:51:21.377Z,14.10
2022-12-18T07:52:25.764Z,15.70
2022-12-18T07:53:21.396Z,18.10
2022-12-18T07:54:21.491Z,18.30
2022-12-18T07:55:21.214Z,17.20
2022-12-18T07:56:30.004Z,15.10
2022-12-18T07:57:48.877Z,20.20
2022-12-18T07:58:21.318Z,17.00
2022-12-18T07:59:21.442Z,14.90
2022-12-18T08:00:21.390Z,15.30
2022-12-18T08:01:21.577Z,14.50
2022-12-18T08:02:21.636Z,17.60
2022-12-18T08:03:21.594Z,13.70
2022-12-18T08:04:21.091Z,14.50
2022-12-18T08:05:21.069Z,14.90
2022-12-18T08:06:22.755Z,17.30
2022-12-18T08:07:21.071Z,15.50
2022-12-18T08:08:21.091Z,15.10
2022-12-18T08:09:21.089Z,18.20
2022-12-18T08:10:21.088Z,16.80
2022-12-18T08:11:21.537Z,21.40
2022-12-18T08:12:21.107Z,16.90
2022-12-18T08:13:21.040Z,20.00
2022-12-18T08:14:21.125Z,18.80
2022-12-18T08:15:21.128Z,17.70
2022-12-18T08:16:21.205Z,20.10
2022-12-18T08:17:21.145Z,18.50
2022-12-18T08:18:21.145Z,20.90
2022-12-18T08:19:21.176Z,18.30
2022-12-18T08:20:21.154Z,16.20
2022-12-18T08:21:21.453Z,17.40
2022-12-18T08:22:21.174Z,14.80
2022-12-18T08:23:21.032Z,18.40
2022-12-18T08:24:20.982Z,18.20
2022-12-18T08:25:21.020Z,20.90
2022-12-18T08:26:21.090Z,20.70
2022-12-18T08:27:29.432Z,21.10
2022-12-18T08:28:21.002Z,17.30
2022-12-18T08:29:21.771Z,19.90
2022-12-18T08:30:21.020Z,18.30
2022-12-18T08:31:21.155Z,16.40
2022-12-18T08:32:21.048Z,18.00
2022-12-18T08:33:21.109Z,16.20
2022-12-18T08:34:21.056Z,15.80
2022-12-18T08:35:21.090Z,14.70
2022-12-18T08:36:21.058Z,16.70
2022-12-18T08:37:21.069Z,16.30
2022-12-18T08:38:20.970Z,12.40
2022-12-18T08:39:21.075Z,14.00
2022-12-18T08:40:20.877Z,13.60
2022-12-18T08:41:20.876Z,15.90
2022-12-18T08:42:21.101Z,14.40
2022-12-18T08:43:21.104Z,13.90
2022-12-18T08:44:20.904Z,13.60
2022-12-18T08:45:21.223Z,14.50
2022-12-18T08:46:21.277Z,15.80
2022-12-18T08:47:21.233Z,12.80
2022-12-18T08:48:22.411Z,16.40
2022-12-18T08:49:20.843Z,17.10
2022-12-18T08:50:20.852Z,16.50
2022-12-18T08:51:20.850Z,15.50
2022-12-18T08:52:20.984Z,16.80
2022-12-18T08:53:20.970Z,15.60
2022-12-18T08:54:20.982Z,16.40
2022-12-18T08:55:20.769Z,17.20
2022-12-18T08:56:21.201Z,16.40
2022-12-18T08:57:21.208Z,15.30
2022-12-18T08:58:21.319Z,14.20
2022-12-18T08:59:21.318Z,15.50
2022-12-18T09:00:20.819Z,14.40
2022-12-18T09:01:20.900Z,15.70
2022-12-18T09:02:21.069Z,14.40
2022-12-18T09:03:20.875Z,14.70
2022-12-18T09:04:20.835Z,14.50
2022-12-18T09:05:20.837Z,12.90
2022-12-18T09:06:20.955Z,17.10
2022-12-18T09:07:20.965Z,12.40
2022-12-18T09:08:21.063Z,15.40
2022-12-18T09:09:21.068Z,16.20
2022-12-18T09:10:20.781Z,15.10
2022-12-18T09:11:21.084Z,13.90
2022-12-18T09:12:21.202Z,13.10
2022-12-18T09:13:20.803Z,15.20
2022-12-18T09:14:20.814Z,16.20
2022-12-18T09:15:20.812Z,15.40
2022-12-18T09:16:21.257Z,11.60
2022-12-18T09:17:21.553Z,13.90
2022-12-18T09:18:21.539Z,15.70
2022-12-18T09:19:21.160Z,15.30
2022-12-18T09:20:21.049Z,15.50
2022-12-18T09:21:21.350Z,15.50
2022-12-18T09:22:20.749Z,14.80
2022-12-18T09:23:21.693Z,14.70
2022-12-18T09:24:20.965Z,14.70
2022-12-18T09:25:21.287Z,15.50
2022-12-18T09:26:21.667Z,16.40
2022-12-18T09:27:21.546Z,17.70
2022-12-18T09:28:20.903Z,17.40
2022-12-18T09:29:20.865Z,15.40
2022-12-18T09:30:20.794Z,18.70
2022-12-18T09:31:21.494Z,21.90
2022-12-18T09:32:22.489Z,17.70
2022-12-18T09:33:21.135Z,19.00
2022-12-18T09:34:20.824Z,17.50
2022-12-18T09:35:20.946Z,18.70
2022-12-18T09:36:21.162Z,18.90
2022-12-18T09:37:20.563Z,20.90
2022-12-18T09:38:20.582Z,17.60
2022-12-18T09:39:23.611Z,19.70
2022-12-18T09:40:20.581Z,18.90
2022-12-18T09:41:20.601Z,19.20
2022-12-18T09:42:20.670Z,22.30
2022-12-18T09:43:20.598Z,19.00
2022-12-18T09:44:20.722Z,20.80
2022-12-18T09:45:20.609Z,20.00
2022-12-18T09:46:20.827Z,22.00
2022-12-18T09:47:20.630Z,20.90
2022-12-18T09:48:20.522Z,20.60
2022-12-18T09:49:20.509Z,23.30
2022-12-18T09:50:20.740Z,21.30
2022-12-18T09:51:20.864Z,17.70
2022-12-18T09:52:20.487Z,19.70
2022-12-18T09:53:20.878Z,18.70
2022-12-18T09:54:20.466Z,19.00
2022-12-18T09:55:20.882Z,18.90
2022-12-18T09:56:20.487Z,21.60
2022-12-18T09:57:20.910Z,22.60
2022-12-18T09:58:21.124Z,22.90
2022-12-18T09:59:21.125Z,22.10
2022-12-18T10:00:20.736Z,21.10
2022-12-18T10:01:20.931Z,23.30
2022-12-18T10:02:21.195Z,20.60
2022-12-18T10:03:21.371Z,22.80
2022-12-18T10:04:21.400Z,24.60
2022-12-18T10:05:20.742Z,19.30
2022-12-18T10:06:21.164Z,22.90
2022-12-18T10:07:21.291Z,19.50
2022-12-18T10:08:21.192Z,18.20
2022-12-18T10:09:20.980Z,19.80
2022-12-18T10:10:21.267Z,23.80
2022-12-18T10:11:20.368Z,21.80
2022-12-18T10:12:20.349Z,23.50
2022-12-18T10:13:21.478Z,21.10
2022-12-18T10:14:21.087Z,21.20
2022-12-18T10:15:20.407Z,21.50
2022-12-18T10:16:20.466Z,21.50
2022-12-18T10:17:20.496Z,25.10
2022-12-18T10:18:22.201Z,22.70
2022-12-18T10:19:20.442Z,21.40
2022-12-18T10:20:20.590Z,22.00
2022-12-18T10:21:20.514Z,21.70
2022-12-18T10:22:20.654Z,22.10
2022-12-18T10:23:20.663Z,21.40
2022-12-18T10:24:20.265Z,24.50
2022-12-18T10:25:20.683Z,25.80
2022-12-18T10:26:20.763Z,20.80
2022-12-18T10:27:20.551Z,23.50
2022-12-18T10:28:20.446Z,27.30
2022-12-18T10:29:20.701Z,26.80
2022-12-18T10:30:20.921Z,24.10
2022-12-18T10:31:21.063Z,25.50
2022-12-18T10:32:21.142Z,23.90
2022-12-18T10:33:20.589Z,26.90
2022-12-18T10:34:20.257Z,25.10
2022-12-18T10:35:21.028Z,26.20
2022-12-18T10:36:21.067Z,25.10
2022-12-18T10:37:20.351Z,29.40
2022-12-18T10:38:20.827Z,33.30
2022-12-18T10:39:20.205Z,27.00
2022-12-18T10:40:22.591Z,26.10
2022-12-18T10:41:21.786Z,28.10
2022-12-18T10:42:20.257Z,27.20
2022-12-18T10:43:20.395Z,27.50
2022-12-18T10:44:20.256Z,25.50
2022-12-18T10:45:20.256Z,23.80
2022-12-18T10:46:20.488Z,26.90
2022-12-18T10:47:20.417Z,25.00
2022-12-18T10:48:20.634Z,25.30
2022-12-18T10:49:20.649Z,25.50
2022-12-18T10:50:20.103Z,21.90
2022-12-18T10:51:20.134Z,22.60
2022-12-18T10:52:20.145Z,20.30
2022-12-18T10:53:20.146Z,19.50
2022-12-18T10:54:20.125Z,21.60
2022-12-18T10:55:20.271Z,21.90
2022-12-18T10:56:20.110Z,21.00
2022-12-18T10:57:20.296Z,20.90
2022-12-18T10:58:26.361Z,20.70
2022-12-18T10:59:20.351Z,21.40
2022-12-18T11:00:20.101Z,19.80
2022-12-18T11:01:20.657Z,21.40
2022-12-18T11:02:20.863Z,26.10
2022-12-18T11:03:20.577Z,24.90
2022-12-18T11:04:20.060Z,20.60
2022-12-18T11:05:20.018Z,25.10
2022-12-18T11:06:20.027Z,23.50
2022-12-18T11:07:20.016Z,20.20
2022-12-18T11:08:20.026Z,22.40
2022-12-18T11:09:20.017Z,21.80
2022-12-18T11:10:20.039Z,21.90
2022-12-18T11:11:19.976Z,18.90
2022-12-18T11:12:19.987Z,23.90
2022-12-18T11:13:19.998Z,20.70
2022-12-18T11:14:19.995Z,24.30
2022-12-18T11:15:20.004Z,21.60
2022-12-18T11:16:20.155Z,21.60
2022-12-18T11:17:27.318Z,18.10
2022-12-18T11:18:20.070Z,20.00
2022-12-18T11:19:20.074Z,21.50
2022-12-18T11:20:20.084Z,20.40
2022-12-18T11:21:20.094Z,23.10
2022-12-18T11:22:20.110Z,24.20
2022-12-18T11:23:19.912Z,21.70
2022-12-18T11:24:20.270Z,21.00
2022-12-18T11:25:32.951Z,24.30
2022-12-18T11:26:20.283Z,19.70
2022-12-18T11:27:20.289Z,21.50
2022-12-18T11:28:19.888Z,27.70
2022-12-18T11:29:19.925Z,24.20
2022-12-18T11:30:19.901Z,40.40
2022-12-18T11:31:19.943Z,27.80
2022-12-18T11:32:19.970Z,24.60
2022-12-18T11:33:20.137Z,22.30
2022-12-18T11:34:29.018Z,20.00
2022-12-18T11:35:19.987Z,21.80
2022-12-18T11:36:19.948Z,22.70
2022-12-18T11:37:19.947Z,23.40
2022-12-18T11:38:20.025Z,20.60
2022-12-18T11:39:20.175Z,24.60
2022-12-18T11:40:20.177Z,23.20
2022-12-18T11:41:19.792Z,22.20
2022-12-18T11:42:20.196Z,23.00
2022-12-18T11:43:20.245Z,25.00
2022-12-18T11:44:20.824Z,24.10
2022-12-18T11:45:20.424Z,25.30
2022-12-18T11:46:20.368Z,23.10
2022-12-18T11:47:20.014Z,25.20
2022-12-18T11:48:20.293Z,26.20
2022-12-18T11:49:19.842Z,21.80
2022-12-18T11:50:19.873Z,21.70
2022-12-18T11:51:19.741Z,25.40
2022-12-18T11:52:19.853Z,22.40
2022-12-18T11:53:20.060Z,23.50
2022-12-18T11:54:19.867Z,24.40
2022-12-18T11:55:19.712Z,26.30
2022-12-18T11:56:20.053Z,23.70
2022-12-18T11:57:20.082Z,23.80
2022-12-18T11:58:20.310Z,25.70
2022-12-18T11:59:19.771Z,23.50
2022-12-18T12:00:20.109Z,22.10
2022-12-18T12:01:20.590Z,23.80
2022-12-18T12:02:20.552Z,24.30
2022-12-18T12:03:20.566Z,21.60
2022-12-18T12:04:20.186Z,22.30
2022-12-18T12:05:20.548Z,23.70
2022-12-18T12:06:19.779Z,23.30
2022-12-18T12:07:19.778Z,22.40
2022-12-18T12:08:19.757Z,25.50
2022-12-18T12:09:19.597Z,23.00
2022-12-18T12:10:19.775Z,23.30
2022-12-18T12:11:19.769Z,23.30
2022-12-18T12:12:19.995Z,25.10
2022-12-18T12:13:19.997Z,24.00
2022-12-18T12:14:19.625Z,22.30
2022-12-18T12:15:19.825Z,22.80
2022-12-18T12:16:20.099Z,23.00
2022-12-18T12:17:20.271Z,22.70
2022-12-18T12:18:19.824Z,22.80
2022-12-18T12:19:20.033Z,24.90
2022-12-18T12:20:20.253Z,24.00
2022-12-18T12:21:20.462Z,27.60
2022-12-18T12:22:20.362Z,27.70
2022-12-18T12:23:22.468Z,27.10
2022-12-18T12:24:20.062Z,27.40
2022-12-18T12:25:20.321Z,26.50
2022-12-18T12:26:20.231Z,29.30
2022-12-18T12:27:19.562Z,28.10
2022-12-18T12:28:19.493Z,27.00
2022-12-18T12:29:21.268Z,24.60
2022-12-18T12:30:19.514Z,23.70
2022-12-18T12:31:19.512Z,21.60
2022-12-18T12:32:19.508Z,22.60
2022-12-18T12:33:19.521Z,25.10
2022-12-18T12:34:19.942Z,25.10
2022-12-18T12:35:19.529Z,22.10
2022-12-18T12:36:19.537Z,30.20
2022-12-18T12:37:19.617Z,23.70
2022-12-18T12:38:19.547Z,27.00
2022-12-18T12:39:19.437Z,22.00
2022-12-18T12:40:49.093Z,24.10
2022-12-18T12:41:19.446Z,23.60
2022-12-18T12:42:19.426Z,23.20
2022-12-18T12:43:19.425Z,23.00
2022-12-18T12:44:19.385Z,22.50
2022-12-18T12:45:19.495Z,21.70
2022-12-18T12:46:19.460Z,24.40
2022-12-18T12:47:19.403Z,24.60
2022-12-18T12:48:19.414Z,25.70
2022-12-18T12:49:19.354Z,22.60
2022-12-18T12:50:19.335Z,26.30
2022-12-18T12:51:19.355Z,23.60
2022-12-18T12:52:19.447Z,24.80